createdAt,value
2018-04-14T00:00:45.930Z,0
2018-04-14T00:01:45.655Z,0
2018-04-14T00:02:45.652Z,0
2018-04-14T00:03:45.914Z,0
2018-04-14T00:04:45.639Z,0
2018-04-14T00:05:45.633Z,0
2018-04-14T00:06:45.878Z,0
2018-04-14T00:07:45.866Z,0
2018-04-14T00:08:45.616Z,0
2018-04-14T00:09:45.611Z,0
2018-04-14T00:10:45.849Z,0
2018-04-14T00:11:45.333Z,0
2018-04-14T00:12:45.833Z,0
2018-04-14T00:13:45.825Z,0
2018-04-14T00:14:45.826Z,0
2018-04-14T00:15:45.824Z,0
2018-04-14T00:16:45.559Z,0
2018-04-14T00:17:45.810Z,0
2018-04-14T00:18:45.546Z,0
2018-04-14T00:19:45.552Z,0
2018-04-14T00:20:45.783Z,0
2018-04-14T00:21:45.523Z,0
2018-04-14T00:22:45.779Z,0
2018-04-14T00:23:45.767Z,0
2018-04-14T00:24:45.498Z,0
2018-04-14T00:25:45.748Z,0
2018-04-14T00:26:45.746Z,0
2018-04-14T00:27:45.736Z,0
2018-04-14T00:28:45.727Z,0
2018-04-14T00:29:45.486Z,0
2018-04-14T00:30:45.219Z,0
2018-04-14T00:31:45.709Z,0
2018-04-14T00:32:45.704Z,0
2018-04-14T00:33:45.693Z,0
2018-04-14T00:34:45.450Z,0
2018-04-14T00:35:45.221Z,0
2018-04-14T00:36:45.442Z,0
2018-04-14T00:37:45.181Z,0
2018-04-14T00:38:45.419Z,0
2018-04-14T00:39:45.589Z,0
2018-04-14T00:40:45.648Z,0
2018-04-14T00:41:45.642Z,0
2018-04-14T00:42:45.391Z,0
2018-04-14T00:43:45.392Z,0
2018-04-14T00:44:45.371Z,0
2018-04-14T00:45:45.606Z,0
2018-04-14T00:46:44.589Z,0
2018-04-14T00:47:45.339Z,0
2018-04-14T00:48:45.618Z,0
2018-04-14T00:49:45.606Z,0
2018-04-14T00:50:45.578Z,0
2018-04-14T00:51:45.321Z,0
2018-04-14T00:52:45.560Z,0
2018-04-14T00:53:45.302Z,0
2018-04-14T00:54:45.308Z,0
2018-04-14T00:55:45.292Z,0
2018-04-14T00:56:45.284Z,0
2018-04-14T00:57:45.538Z,0
2018-04-14T00:58:45.522Z,0
2018-04-14T00:59:45.526Z,0
2018-04-14T01:00:45.517Z,0
2018-04-14T01:01:45.509Z,0
2018-04-14T01:02:44.985Z,0
2018-04-14T01:03:45.489Z,0
2018-04-14T01:04:45.491Z,0
2018-04-14T01:05:45.490Z,0
2018-04-14T01:06:45.476Z,0
2018-04-14T01:07:45.261Z,0
2018-04-14T01:08:44.944Z,0
2018-04-14T01:09:45.455Z,0
2018-04-14T01:10:45.184Z,0
2018-04-14T01:11:45.440Z,0
2018-04-14T01:12:45.182Z,0
2018-04-14T01:13:45.166Z,0
2018-04-14T01:14:45.432Z,0
2018-04-14T01:15:45.156Z,0
2018-04-14T01:16:45.405Z,0
2018-04-14T01:17:45.135Z,0
2018-04-14T01:18:45.131Z,0
2018-04-14T01:19:44.877Z,0
2018-04-14T01:20:45.118Z,0
2018-04-14T01:21:45.361Z,0
2018-04-14T01:22:45.494Z,0
2018-04-14T01:23:45.357Z,0
2018-04-14T01:24:45.344Z,0
2018-04-14T01:25:45.342Z,0
2018-04-14T01:26:45.337Z,0
2018-04-14T01:27:45.325Z,0
2018-04-14T01:28:44.561Z,0
2018-04-14T01:29:45.304Z,0
2018-04-14T01:30:45.308Z,0
2018-04-14T01:31:45.041Z,0
2018-04-14T01:32:45.301Z,0
2018-04-14T01:33:45.033Z,0
2018-04-14T01:34:45.273Z,0
2018-04-14T01:35:45.016Z,0
2018-04-14T01:36:44.771Z,0
2018-04-14T01:37:45.249Z,0
2018-04-14T01:38:44.745Z,0
2018-04-14T01:39:44.994Z,0
2018-04-14T01:40:45.257Z,0
2018-04-14T01:41:45.227Z,0
2018-04-14T01:42:45.220Z,0
2018-04-14T01:43:44.983Z,0
2018-04-14T01:44:44.695Z,0
2018-04-14T01:45:45.198Z,0
2018-04-14T01:46:45.191Z,0
2018-04-14T01:47:45.198Z,0
2018-04-14T01:48:44.922Z,0
2018-04-14T01:49:44.917Z,0
2018-04-14T01:50:44.915Z,0
2018-04-14T01:51:44.896Z,0
2018-04-14T01:52:45.148Z,0
2018-04-14T01:53:45.143Z,0
2018-04-14T01:54:45.136Z,0
2018-04-14T01:55:44.618Z,0
2018-04-14T01:56:44.871Z,0
2018-04-14T01:57:45.106Z,0
2018-04-14T01:58:45.101Z,0
2018-04-14T01:59:44.843Z,0
2018-04-14T02:00:44.832Z,0
2018-04-14T02:01:44.846Z,0
2018-04-14T02:02:44.846Z,0
2018-04-14T02:03:45.068Z,0
2018-04-14T02:04:45.110Z,0
2018-04-14T02:05:45.070Z,0
2018-04-14T02:06:44.539Z,0
2018-04-14T02:07:45.039Z,0
2018-04-14T02:08:44.778Z,0
2018-04-14T02:09:44.771Z,0
2018-04-14T02:10:45.015Z,0
2018-04-14T02:11:45.008Z,0
2018-04-14T02:12:45.006Z,0
2018-04-14T02:13:44.745Z,0
2018-04-14T02:14:44.984Z,0
2018-04-14T02:15:44.731Z,0
2018-04-14T02:16:44.986Z,0
2018-04-14T02:17:44.974Z,0
2018-04-14T02:18:44.967Z,0
2018-04-14T02:19:44.960Z,0
2018-04-14T02:20:44.944Z,0
2018-04-14T02:21:44.940Z,0
2018-04-14T02:22:44.679Z,0
2018-04-14T02:23:44.927Z,0
2018-04-14T02:24:44.409Z,0
2018-04-14T02:25:44.907Z,0
2018-04-14T02:26:44.914Z,0
2018-04-14T02:27:44.895Z,0
2018-04-14T02:28:44.888Z,0
2018-04-14T02:29:44.882Z,0
2018-04-14T02:30:44.638Z,0
2018-04-14T02:31:44.365Z,0
2018-04-14T02:32:44.687Z,0
2018-04-14T02:33:44.605Z,0
2018-04-14T02:34:44.859Z,0
2018-04-14T02:35:44.861Z,0
2018-04-14T02:36:44.835Z,0
2018-04-14T02:37:44.584Z,0
2018-04-14T02:38:44.823Z,0
2018-04-14T02:39:44.841Z,0
2018-04-14T02:40:44.556Z,0
2018-04-14T02:41:44.546Z,0
2018-04-14T02:42:44.292Z,0
2018-04-14T02:43:44.800Z,0
2018-04-14T02:44:44.793Z,0
2018-04-14T02:45:44.528Z,0
2018-04-14T02:46:44.763Z,0
2018-04-14T02:47:44.788Z,0
2018-04-14T02:48:44.749Z,0
2018-04-14T02:49:44.786Z,0
2018-04-14T02:50:44.744Z,0
2018-04-14T02:51:44.735Z,0
2018-04-14T02:52:44.480Z,0
2018-04-14T02:53:44.715Z,0
2018-04-14T02:54:44.464Z,0
2018-04-14T02:55:44.705Z,0
2018-04-14T02:56:44.441Z,0
2018-04-14T02:57:44.690Z,0
2018-04-14T02:58:44.435Z,0
2018-04-14T02:59:43.915Z,0
2018-04-14T03:00:44.670Z,0
2018-04-14T03:01:44.421Z,0
2018-04-14T03:02:44.407Z,0
2018-04-14T03:03:44.418Z,0
2018-04-14T03:04:44.398Z,0
2018-04-14T03:05:44.384Z,0
2018-04-14T03:06:44.374Z,0
2018-04-14T03:07:44.117Z,0
2018-04-14T03:08:44.357Z,0
2018-04-14T03:09:44.639Z,0
2018-04-14T03:10:44.100Z,0
2018-04-14T03:11:44.612Z,0
2018-04-14T03:12:44.080Z,0
2018-04-14T03:13:44.334Z,0
2018-04-14T03:14:44.570Z,0
2018-04-14T03:15:44.305Z,0
2018-04-14T03:16:44.300Z,0
2018-04-14T03:17:44.301Z,0
2018-04-14T03:18:44.289Z,0
2018-04-14T03:19:44.285Z,0
2018-04-14T03:20:44.282Z,0
2018-04-14T03:21:44.520Z,0
2018-04-14T03:22:44.270Z,0
2018-04-14T03:23:44.514Z,0
2018-04-14T03:24:44.243Z,0
2018-04-14T03:25:44.501Z,0
2018-04-14T03:26:44.234Z,0
2018-04-14T03:27:43.976Z,0
2018-04-14T03:28:44.473Z,0
2018-04-14T03:29:43.965Z,0
2018-04-14T03:30:44.469Z,0
2018-04-14T03:31:44.208Z,0
2018-04-14T03:32:44.451Z,0
2018-04-14T03:33:44.188Z,0
2018-04-14T03:34:43.932Z,0
2018-04-14T03:35:44.193Z,0
2018-04-14T03:36:44.174Z,0
2018-04-14T03:37:44.178Z,0
2018-04-14T03:38:43.644Z,0
2018-04-14T03:39:44.401Z,0
2018-04-14T03:40:43.885Z,0
2018-04-14T03:41:44.159Z,0
2018-04-14T03:42:43.873Z,0
2018-04-14T03:43:44.370Z,0
2018-04-14T03:44:44.362Z,0
2018-04-14T03:45:44.106Z,0
2018-04-14T03:46:43.859Z,0
2018-04-14T03:47:43.836Z,0
2018-04-14T03:48:43.845Z,0
2018-04-14T03:49:44.334Z,0
2018-04-14T03:50:44.324Z,0
2018-04-14T03:51:44.059Z,0
2018-04-14T03:52:44.061Z,0
2018-04-14T03:53:43.546Z,0
2018-04-14T03:54:43.537Z,0
2018-04-14T03:55:44.037Z,0
2018-04-14T03:56:43.781Z,0
2018-04-14T03:57:44.287Z,0
2018-04-14T03:58:44.020Z,0
2018-04-14T03:59:44.003Z,0
2018-04-14T04:00:44.017Z,0
2018-04-14T04:01:44.260Z,0
2018-04-14T04:02:44.236Z,0
2018-04-14T04:03:44.247Z,0
2018-04-14T04:04:44.240Z,0
2018-04-14T04:05:43.968Z,0
2018-04-14T04:06:44.213Z,0
2018-04-14T04:07:43.951Z,0
2018-04-14T04:08:43.945Z,0
2018-04-14T04:09:44.190Z,0
2018-04-14T04:10:43.945Z,0
2018-04-14T04:11:43.934Z,0
2018-04-14T04:12:43.931Z,0
2018-04-14T04:13:43.913Z,0
2018-04-14T04:14:43.657Z,0
2018-04-14T04:15:44.342Z,0
2018-04-14T04:16:44.146Z,0
2018-04-14T04:17:44.149Z,0
2018-04-14T04:18:44.132Z,0
2018-04-14T04:19:44.130Z,0
2018-04-14T04:20:44.126Z,0
2018-04-14T04:21:43.865Z,0
2018-04-14T04:22:43.847Z,0
2018-04-14T04:23:43.848Z,5
2018-04-14T04:24:44.087Z,5
2018-04-14T04:25:43.828Z,5
2018-04-14T04:26:43.820Z,5
2018-04-14T04:27:43.560Z,5
2018-04-14T04:28:44.065Z,5
2018-04-14T04:29:44.068Z,5
2018-04-14T04:30:43.794Z,5
2018-04-14T04:31:44.037Z,5
2018-04-14T04:32:43.533Z,0
2018-04-14T04:33:44.033Z,5
2018-04-14T04:34:44.038Z,5
2018-04-14T04:35:44.013Z,5
2018-04-14T04:36:43.750Z,5
2018-04-14T04:37:43.492Z,5
2018-04-14T04:38:43.495Z,5
2018-04-14T04:39:43.476Z,5
2018-04-14T04:40:43.722Z,5
2018-04-14T04:41:43.722Z,5
2018-04-14T04:42:43.963Z,5
2018-04-14T04:43:43.960Z,5
2018-04-14T04:44:43.947Z,5
2018-04-14T04:45:43.955Z,5
2018-04-14T04:46:43.986Z,5
2018-04-14T04:47:43.921Z,5
2018-04-14T04:48:43.972Z,5
2018-04-14T04:49:43.656Z,10
2018-04-14T04:50:43.664Z,5
2018-04-14T04:51:43.902Z,10
2018-04-14T04:52:43.131Z,10
2018-04-14T04:53:43.630Z,10
2018-04-14T04:54:43.933Z,15
2018-04-14T04:55:43.876Z,15
2018-04-14T04:56:43.860Z,20
2018-04-14T04:57:43.602Z,20
2018-04-14T04:58:43.903Z,20
2018-04-14T04:59:43.584Z,15
2018-04-14T05:00:43.580Z,20
2018-04-14T05:01:43.574Z,20
2018-04-14T05:02:43.573Z,20
2018-04-14T05:03:43.825Z,20
2018-04-14T05:04:43.809Z,20
2018-04-14T05:05:43.795Z,15
2018-04-14T05:06:43.799Z,15
2018-04-14T05:07:43.783Z,15
2018-04-14T05:08:43.538Z,10
2018-04-14T05:09:43.769Z,15
2018-04-14T05:10:43.758Z,15
2018-04-14T05:11:43.764Z,20
2018-04-14T05:12:43.498Z,20
2018-04-14T05:13:43.736Z,25
2018-04-14T05:14:43.480Z,20
2018-04-14T05:15:43.488Z,30
2018-04-14T05:16:43.724Z,30
2018-04-14T05:17:43.718Z,35
2018-04-14T05:18:43.704Z,35
2018-04-14T05:19:43.712Z,40
2018-04-14T05:20:43.436Z,45
2018-04-14T05:21:43.431Z,50
2018-04-14T05:22:43.684Z,55
2018-04-14T05:23:43.682Z,60
2018-04-14T05:24:43.671Z,65
2018-04-14T05:25:43.411Z,70
2018-04-14T05:26:43.644Z,70
2018-04-14T05:27:43.644Z,70
2018-04-14T05:28:43.642Z,65
2018-04-14T05:29:43.626Z,55
2018-04-14T05:30:43.618Z,55
2018-04-14T05:31:43.104Z,50
2018-04-14T05:32:43.609Z,50
2018-04-14T05:33:43.616Z,50
2018-04-14T05:34:43.587Z,50
2018-04-14T05:35:43.590Z,55
2018-04-14T05:36:43.325Z,60
2018-04-14T05:37:43.665Z,60
2018-04-14T05:38:43.306Z,60
2018-04-14T05:39:43.307Z,55
2018-04-14T05:40:43.295Z,55
2018-04-14T05:41:43.543Z,60
2018-04-14T05:42:43.349Z,60
2018-04-14T05:43:43.529Z,65
2018-04-14T05:44:43.520Z,70
2018-04-14T05:45:43.255Z,70
2018-04-14T05:46:43.504Z,75
2018-04-14T05:47:43.502Z,70
2018-04-14T05:48:42.987Z,70
2018-04-14T05:49:43.487Z,75
2018-04-14T05:50:43.479Z,75
2018-04-14T05:51:42.966Z,85
2018-04-14T05:52:43.469Z,90
2018-04-14T05:53:43.453Z,100
2018-04-14T05:54:43.201Z,110
2018-04-14T05:55:42.936Z,110
2018-04-14T05:56:43.435Z,95
2018-04-14T05:57:43.431Z,110
2018-04-14T05:58:43.436Z,110
2018-04-14T05:59:43.160Z,115
2018-04-14T06:00:43.411Z,110
2018-04-14T06:01:43.408Z,110
2018-04-14T06:02:43.395Z,105
2018-04-14T06:03:43.390Z,100
2018-04-14T06:04:42.885Z,100
2018-04-14T06:05:42.877Z,100
2018-04-14T06:06:42.869Z,110
2018-04-14T06:07:43.360Z,115
2018-04-14T06:08:43.354Z,120
2018-04-14T06:09:43.097Z,125
2018-04-14T06:10:43.092Z,135
2018-04-14T06:11:43.334Z,135
2018-04-14T06:12:43.382Z,140
2018-04-14T06:13:43.323Z,150
2018-04-14T06:14:43.059Z,165
2018-04-14T06:15:43.303Z,165
2018-04-14T06:16:43.299Z,175
2018-04-14T06:17:43.292Z,185
2018-04-14T06:18:43.314Z,195
2018-04-14T06:19:43.277Z,200
2018-04-14T06:20:43.280Z,190
2018-04-14T06:21:43.019Z,195
2018-04-14T06:22:43.003Z,230
2018-04-14T06:23:43.311Z,245
2018-04-14T06:24:43.006Z,255
2018-04-14T06:25:42.985Z,290
2018-04-14T06:26:43.234Z,295
2018-04-14T06:27:43.225Z,310
2018-04-14T06:28:43.227Z,335
2018-04-14T06:29:42.961Z,335
2018-04-14T06:30:43.205Z,350
2018-04-14T06:31:43.202Z,350
2018-04-14T06:32:43.514Z,350
2018-04-14T06:33:42.940Z,325
2018-04-14T06:34:42.950Z,335
2018-04-14T06:35:42.929Z,345
2018-04-14T06:36:42.671Z,370
2018-04-14T06:37:43.163Z,400
2018-04-14T06:38:42.653Z,425
2018-04-14T06:39:42.648Z,435
2018-04-14T06:40:43.444Z,435
2018-04-14T06:41:43.151Z,455
2018-04-14T06:42:42.626Z,405
2018-04-14T06:43:43.141Z,350
2018-04-14T06:44:42.885Z,295
2018-04-14T06:45:42.358Z,320
2018-04-14T06:46:43.115Z,330
2018-04-14T06:47:43.115Z,325
2018-04-14T06:48:43.118Z,285
2018-04-14T06:49:43.104Z,240
2018-04-14T06:50:43.103Z,235
2018-04-14T06:51:42.325Z,215
2018-04-14T06:52:43.110Z,165
2018-04-14T06:53:43.091Z,155
2018-04-14T06:54:42.821Z,125
2018-04-14T06:55:43.068Z,110
2018-04-14T06:56:43.073Z,140
2018-04-14T06:57:42.558Z,160
2018-04-14T06:58:43.055Z,185
2018-04-14T06:59:43.048Z,155
2018-04-14T07:00:43.054Z,145
2018-04-14T07:01:42.785Z,150
2018-04-14T07:02:42.809Z,150
2018-04-14T07:03:42.784Z,160
2018-04-14T07:04:43.202Z,165
2018-04-14T07:05:42.782Z,145
2018-04-14T07:06:43.014Z,140
2018-04-14T07:07:43.013Z,125
2018-04-14T07:08:42.750Z,125
2018-04-14T07:09:42.744Z,125
2018-04-14T07:10:42.749Z,140
2018-04-14T07:11:43.000Z,150
2018-04-14T07:12:43.000Z,155
2018-04-14T07:13:42.983Z,185
2018-04-14T07:14:42.980Z,215
2018-04-14T07:15:42.982Z,260
2018-04-14T07:16:42.962Z,260
2018-04-14T07:17:42.700Z,240
2018-04-14T07:18:42.707Z,200
2018-04-14T07:19:42.952Z,180
2018-04-14T07:20:42.842Z,180
2018-04-14T07:21:42.945Z,190
2018-04-14T07:22:42.684Z,205
2018-04-14T07:23:42.673Z,255
2018-04-14T07:24:42.675Z,315
2018-04-14T07:25:42.911Z,375
2018-04-14T07:26:42.660Z,385
2018-04-14T07:27:42.647Z,350
2018-04-14T07:28:42.643Z,295
2018-04-14T07:29:42.387Z,265
2018-04-14T07:30:42.894Z,265
2018-04-14T07:31:42.884Z,290
2018-04-14T07:32:42.879Z,300
2018-04-14T07:33:42.873Z,315
2018-04-14T07:34:42.871Z,340
2018-04-14T07:35:42.663Z,385
2018-04-14T07:36:42.609Z,435
2018-04-14T07:37:42.740Z,490
2018-04-14T07:38:42.591Z,665
2018-04-14T07:39:42.615Z,730
2018-04-14T07:40:42.589Z,775
2018-04-14T07:41:42.601Z,1295
2018-04-14T07:42:42.576Z,820
2018-04-14T07:43:42.828Z,735
2018-04-14T07:44:42.839Z,745
2018-04-14T07:45:42.829Z,765
2018-04-14T07:46:42.577Z,1115
2018-04-14T07:47:42.820Z,755
2018-04-14T07:48:42.827Z,720
2018-04-14T07:49:42.553Z,745
2018-04-14T07:50:42.552Z,1030
2018-04-14T07:51:42.423Z,1360
2018-04-14T07:52:42.315Z,1490
2018-04-14T07:53:42.795Z,1480
2018-04-14T07:54:42.795Z,860
2018-04-14T07:55:42.552Z,1145
2018-04-14T07:56:42.799Z,1245
2018-04-14T07:57:42.590Z,945
2018-04-14T07:58:42.828Z,1330
2018-04-14T07:59:42.536Z,840
2018-04-14T08:00:42.808Z,925
2018-04-14T08:01:42.535Z,865
2018-04-14T08:02:42.540Z,805
2018-04-14T08:03:42.814Z,760
2018-04-14T08:04:42.807Z,695
2018-04-14T08:05:42.540Z,680
2018-04-14T08:06:42.548Z,715
2018-04-14T08:07:42.805Z,535
2018-04-14T08:08:42.290Z,405
2018-04-14T08:09:42.305Z,465
2018-04-14T08:10:42.798Z,415
2018-04-14T08:11:42.700Z,485
2018-04-14T08:12:42.802Z,620
2018-04-14T08:13:42.834Z,690
2018-04-14T08:14:42.819Z,725
2018-04-14T08:15:42.816Z,700
2018-04-14T08:16:42.820Z,655
2018-04-14T08:17:42.817Z,520
2018-04-14T08:18:42.805Z,455
2018-04-14T08:19:42.551Z,440
2018-04-14T08:20:42.300Z,440
2018-04-14T08:21:42.302Z,500
2018-04-14T08:22:42.338Z,535
2018-04-14T08:23:42.826Z,545
2018-04-14T08:24:42.932Z,620
2018-04-14T08:25:42.814Z,640
2018-04-14T08:26:42.578Z,540
2018-04-14T08:27:42.570Z,590
2018-04-14T08:28:42.555Z,620
2018-04-14T08:29:42.805Z,605
2018-04-14T08:30:42.812Z,645
2018-04-14T08:31:42.808Z,600
2018-04-14T08:32:42.831Z,605
2018-04-14T08:33:42.554Z,595
2018-04-14T08:34:42.561Z,575
2018-04-14T08:35:42.299Z,575
2018-04-14T08:36:42.567Z,575
2018-04-14T08:37:42.564Z,595
2018-04-14T08:38:42.553Z,565
2018-04-14T08:39:42.551Z,675
2018-04-14T08:40:42.820Z,565
2018-04-14T08:41:42.872Z,590
2018-04-14T08:42:42.815Z,865
2018-04-14T08:43:42.567Z,760
2018-04-14T08:44:42.554Z,860
2018-04-14T08:45:42.292Z,885
2018-04-14T08:46:42.804Z,930
2018-04-14T08:47:42.809Z,815
2018-04-14T08:48:42.546Z,750
2018-04-14T08:49:42.801Z,790
2018-04-14T08:50:42.552Z,830
2018-04-14T08:51:42.554Z,775
2018-04-14T08:52:42.817Z,695
2018-04-14T08:53:42.809Z,705
2018-04-14T08:54:42.561Z,650
2018-04-14T08:55:42.804Z,760
2018-04-14T08:56:42.810Z,815
2018-04-14T08:57:42.549Z,965
2018-04-14T08:58:42.827Z,980
2018-04-14T08:59:42.306Z,955
2018-04-14T09:00:42.840Z,1035
2018-04-14T09:01:42.315Z,1105
2018-04-14T09:02:42.568Z,1130
2018-04-14T09:03:42.606Z,960
2018-04-14T09:04:42.813Z,780
2018-04-14T09:05:42.058Z,635
2018-04-14T09:06:42.842Z,645
2018-04-14T09:07:42.564Z,565
2018-04-14T09:08:42.575Z,470
2018-04-14T09:09:42.568Z,455
2018-04-14T09:10:42.578Z,595
2018-04-14T09:11:42.324Z,620
2018-04-14T09:12:42.838Z,590
2018-04-14T09:13:42.321Z,590
2018-04-14T09:14:42.342Z,535
2018-04-14T09:15:42.833Z,460
2018-04-14T09:16:42.076Z,505
2018-04-14T09:17:42.852Z,590
2018-04-14T09:18:42.589Z,670
2018-04-14T09:19:42.590Z,760
2018-04-14T09:20:42.591Z,770
2018-04-14T09:21:42.624Z,755
2018-04-14T09:22:42.856Z,785
2018-04-14T09:23:42.591Z,730
2018-04-14T09:24:42.865Z,735
2018-04-14T09:25:42.852Z,780
2018-04-14T09:26:42.860Z,685
2018-04-14T09:27:42.861Z,690
2018-04-14T09:28:42.879Z,715
2018-04-14T09:29:42.348Z,695
2018-04-14T09:30:42.855Z,690
2018-04-14T09:31:42.604Z,670
2018-04-14T09:32:42.877Z,660
2018-04-14T09:33:42.869Z,620
2018-04-14T09:34:42.873Z,595
2018-04-14T09:35:42.873Z,565
2018-04-14T09:36:42.659Z,560
2018-04-14T09:37:42.617Z,570
2018-04-14T09:38:42.630Z,575
2018-04-14T09:39:42.616Z,590
2018-04-14T09:40:42.876Z,645
2018-04-14T09:41:42.873Z,625
2018-04-14T09:42:42.899Z,585
2018-04-14T09:43:42.631Z,610
2018-04-14T09:44:42.381Z,615
2018-04-14T09:45:42.883Z,595
2018-04-14T09:46:43.287Z,560
2018-04-14T09:47:42.893Z,565
2018-04-14T09:48:42.903Z,505
2018-04-14T09:49:42.892Z,470
2018-04-14T09:50:42.885Z,495
2018-04-14T09:51:42.900Z,575
2018-04-14T09:52:42.658Z,605
2018-04-14T09:53:42.896Z,685
2018-04-14T09:54:42.893Z,635
2018-04-14T09:55:42.633Z,655
2018-04-14T09:56:42.661Z,630
2018-04-14T09:57:42.889Z,715
2018-04-14T09:58:42.902Z,710
2018-04-14T09:59:42.921Z,715
2018-04-14T10:00:42.647Z,665
2018-04-14T10:01:42.897Z,650
2018-04-14T10:02:42.908Z,640
2018-04-14T10:03:42.663Z,690
2018-04-14T10:04:42.934Z,725
2018-04-14T10:05:42.647Z,790
2018-04-14T10:06:42.904Z,835
2018-04-14T10:07:42.907Z,750
2018-04-14T10:08:42.919Z,735
2018-04-14T10:09:42.900Z,780
2018-04-14T10:10:42.788Z,720
2018-04-14T10:11:42.650Z,695
2018-04-14T10:12:42.921Z,545
2018-04-14T10:13:42.916Z,510
2018-04-14T10:14:42.423Z,685
2018-04-14T10:15:42.667Z,765
2018-04-14T10:16:42.411Z,820
2018-04-14T10:17:42.408Z,810
2018-04-14T10:18:42.655Z,765
2018-04-14T10:19:42.655Z,790
2018-04-14T10:20:42.682Z,795
2018-04-14T10:21:42.429Z,700
2018-04-14T10:22:42.923Z,670
2018-04-14T10:23:42.914Z,780
2018-04-14T10:24:42.685Z,750
2018-04-14T10:25:42.924Z,715
2018-04-14T10:26:42.679Z,710
2018-04-14T10:27:42.955Z,650
2018-04-14T10:28:42.938Z,660
2018-04-14T10:29:42.936Z,705
2018-04-14T10:30:42.695Z,815
2018-04-14T10:31:42.937Z,770
2018-04-14T10:32:42.947Z,685
2018-04-14T10:33:42.952Z,545
2018-04-14T10:34:42.692Z,540
2018-04-14T10:35:42.695Z,700
2018-04-14T10:36:42.972Z,850
2018-04-14T10:37:43.150Z,835
2018-04-14T10:38:42.959Z,830
2018-04-14T10:39:42.705Z,775
2018-04-14T10:40:42.991Z,760
2018-04-14T10:41:42.707Z,720
2018-04-14T10:42:42.986Z,710
2018-04-14T10:43:42.965Z,655
2018-04-14T10:44:42.481Z,655
2018-04-14T10:45:42.987Z,670
2018-04-14T10:46:42.995Z,645
2018-04-14T10:47:42.977Z,675
2018-04-14T10:48:42.722Z,660
2018-04-14T10:49:42.985Z,605
2018-04-14T10:50:42.997Z,675
2018-04-14T10:51:42.985Z,630
2018-04-14T10:52:42.751Z,585
2018-04-14T10:53:42.745Z,590
2018-04-14T10:54:43.019Z,560
2018-04-14T10:55:42.751Z,495
2018-04-14T10:56:42.490Z,600
2018-04-14T10:57:43.007Z,675
2018-04-14T10:58:42.753Z,755
2018-04-14T10:59:43.070Z,595
2018-04-14T11:00:43.020Z,550
2018-04-14T11:01:43.033Z,480
2018-04-14T11:02:42.774Z,460
2018-04-14T11:03:42.790Z,595
2018-04-14T11:04:43.025Z,535
2018-04-14T11:05:42.774Z,570
2018-04-14T11:06:42.795Z,505
2018-04-14T11:07:42.540Z,455
2018-04-14T11:08:43.017Z,490
2018-04-14T11:09:43.043Z,535
2018-04-14T11:10:42.807Z,505
2018-04-14T11:11:43.031Z,495
2018-04-14T11:12:43.063Z,530
2018-04-14T11:13:43.040Z,545
2018-04-14T11:14:42.790Z,555
2018-04-14T11:15:43.149Z,550
2018-04-14T11:16:42.795Z,600
2018-04-14T11:17:43.070Z,650
2018-04-14T11:18:42.288Z,625
2018-04-14T11:19:42.809Z,590
2018-04-14T11:20:42.421Z,570
2018-04-14T11:21:43.050Z,535
2018-04-14T11:22:43.063Z,550
2018-04-14T11:23:42.804Z,560
2018-04-14T11:24:42.809Z,560
2018-04-14T11:25:42.558Z,545
2018-04-14T11:26:42.817Z,530
2018-04-14T11:27:42.824Z,535
2018-04-14T11:28:42.812Z,560
2018-04-14T11:29:43.134Z,670
2018-04-14T11:30:43.090Z,790
2018-04-14T11:31:42.827Z,780
2018-04-14T11:32:43.135Z,665
2018-04-14T11:33:42.839Z,595
2018-04-14T11:34:43.128Z,560
2018-04-14T11:35:42.824Z,510
2018-04-14T11:36:42.824Z,460
2018-04-14T11:37:42.587Z,430
2018-04-14T11:38:42.579Z,460
2018-04-14T11:39:43.086Z,420
2018-04-14T11:40:43.110Z,390
2018-04-14T11:41:42.852Z,415
2018-04-14T11:42:42.863Z,390
2018-04-14T11:43:42.872Z,435
2018-04-14T11:44:42.875Z,415
2018-04-14T11:45:43.094Z,405
2018-04-14T11:46:43.102Z,450
2018-04-14T11:47:43.151Z,450
2018-04-14T11:48:42.854Z,480
2018-04-14T11:49:42.842Z,510
2018-04-14T11:50:42.860Z,610
2018-04-14T11:51:43.108Z,565
2018-04-14T11:52:43.120Z,545
2018-04-14T11:53:43.114Z,530
2018-04-14T11:54:43.110Z,585
2018-04-14T11:55:43.109Z,530
2018-04-14T11:56:42.602Z,550
2018-04-14T11:57:43.130Z,490
2018-04-14T11:58:42.866Z,420
2018-04-14T11:59:43.121Z,465
2018-04-14T12:00:42.881Z,485
2018-04-14T12:01:42.873Z,540
2018-04-14T12:02:43.119Z,565
2018-04-14T12:03:42.998Z,485
2018-04-14T12:04:43.121Z,495
2018-04-14T12:05:43.134Z,495
2018-04-14T12:06:43.176Z,535
2018-04-14T12:07:42.886Z,555
2018-04-14T12:08:43.137Z,610
2018-04-14T12:09:42.880Z,575
2018-04-14T12:10:42.884Z,565
2018-04-14T12:11:43.351Z,490
2018-04-14T12:12:42.884Z,495
2018-04-14T12:13:43.150Z,515
2018-04-14T12:14:42.884Z,500
2018-04-14T12:15:42.379Z,515
2018-04-14T12:16:43.141Z,540
2018-04-14T12:17:42.886Z,665
2018-04-14T12:18:42.397Z,650
2018-04-14T12:19:43.174Z,580
2018-04-14T12:20:43.145Z,495
2018-04-14T12:21:43.149Z,540
2018-04-14T12:22:43.051Z,530
2018-04-14T12:23:42.900Z,515
2018-04-14T12:24:43.159Z,455
2018-04-14T12:25:42.913Z,430
2018-04-14T12:26:43.157Z,485
2018-04-14T12:27:43.206Z,465
2018-04-14T12:28:43.162Z,435
2018-04-14T12:29:43.188Z,440
2018-04-14T12:30:43.168Z,600
2018-04-14T12:31:42.666Z,675
2018-04-14T12:32:43.161Z,505
2018-04-14T12:33:43.174Z,470
2018-04-14T12:34:43.089Z,490
2018-04-14T12:35:43.174Z,505
2018-04-14T12:36:42.936Z,445
2018-04-14T12:37:42.935Z,455
2018-04-14T12:38:43.185Z,460
2018-04-14T12:39:42.670Z,335
2018-04-14T12:40:43.210Z,265
2018-04-14T12:41:43.183Z,230
2018-04-14T12:42:42.930Z,230
2018-04-14T12:43:43.188Z,210
2018-04-14T12:44:43.197Z,200
2018-04-14T12:45:42.948Z,230
2018-04-14T12:46:42.925Z,185
2018-04-14T12:47:42.676Z,190
2018-04-14T12:48:42.431Z,180
2018-04-14T12:49:42.979Z,165
2018-04-14T12:50:43.181Z,150
2018-04-14T12:51:42.925Z,135
2018-04-14T12:52:43.195Z,110
2018-04-14T12:53:43.184Z,100
2018-04-14T12:54:43.029Z,95
2018-04-14T12:55:42.671Z,80
2018-04-14T12:56:42.923Z,65
2018-04-14T12:57:42.941Z,50
2018-04-14T12:58:42.923Z,45
2018-04-14T12:59:43.184Z,40
2018-04-14T13:00:42.921Z,35
2018-04-14T13:01:42.929Z,40
2018-04-14T13:02:42.940Z,40
2018-04-14T13:03:42.920Z,35
2018-04-14T13:04:43.176Z,55
2018-04-14T13:05:42.973Z,55
2018-04-14T13:06:43.167Z,50
2018-04-14T13:07:43.174Z,70
2018-04-14T13:08:43.187Z,95
2018-04-14T13:09:42.911Z,80
2018-04-14T13:10:43.201Z,70
2018-04-14T13:11:43.191Z,100
2018-04-14T13:12:42.918Z,185
2018-04-14T13:13:42.960Z,310
2018-04-14T13:14:43.160Z,340
2018-04-14T13:15:43.156Z,325
2018-04-14T13:16:42.913Z,310
2018-04-14T13:17:43.158Z,320
2018-04-14T13:18:42.907Z,245
2018-04-14T13:19:43.162Z,165
2018-04-14T13:20:43.148Z,135
2018-04-14T13:21:42.640Z,150
2018-04-14T13:22:43.147Z,180
2018-04-14T13:23:42.892Z,195
2018-04-14T13:24:43.202Z,165
2018-04-14T13:25:42.890Z,125
2018-04-14T13:26:42.899Z,125
2018-04-14T13:27:42.942Z,115
2018-04-14T13:28:42.869Z,100
2018-04-14T13:29:43.120Z,120
2018-04-14T13:30:42.869Z,185
2018-04-14T13:31:43.342Z,220
2018-04-14T13:32:43.118Z,250
2018-04-14T13:33:42.610Z,255
2018-04-14T13:34:43.341Z,315
2018-04-14T13:35:42.588Z,420
2018-04-14T13:36:43.101Z,435
2018-04-14T13:37:42.728Z,420
2018-04-14T13:38:43.101Z,440
2018-04-14T13:39:43.129Z,465
2018-04-14T13:40:42.988Z,510
2018-04-14T13:41:43.081Z,525
2018-04-14T13:42:43.072Z,485
2018-04-14T13:43:43.096Z,390
2018-04-14T13:44:43.085Z,330
2018-04-14T13:45:43.066Z,320
2018-04-14T13:46:43.267Z,345
2018-04-14T13:47:42.801Z,390
2018-04-14T13:48:42.840Z,430
2018-04-14T13:49:43.070Z,460
2018-04-14T13:50:43.054Z,430
2018-04-14T13:51:43.067Z,400
2018-04-14T13:52:42.793Z,415
2018-04-14T13:53:42.791Z,435
2018-04-14T13:54:43.059Z,470
2018-04-14T13:55:43.051Z,435
2018-04-14T13:56:42.787Z,370
2018-04-14T13:57:43.038Z,420
2018-04-14T13:58:43.023Z,405
2018-04-14T13:59:43.030Z,365
2018-04-14T14:00:42.768Z,390
2018-04-14T14:01:42.770Z,405
2018-04-14T14:02:42.765Z,385
2018-04-14T14:03:43.010Z,335
2018-04-14T14:04:43.007Z,345
2018-04-14T14:05:42.756Z,340
2018-04-14T14:06:42.756Z,295
2018-04-14T14:07:43.004Z,265
2018-04-14T14:08:43.018Z,255